TPR weather

Tom Price Airport
Tom Price, Western Australia, Australia

Public forecast

Using degrees Celsius for public forecast. Weather courtesy of forecast.io.

Closest aviation weather report (METAR) to Tom Price Airport

Closest report is Paraburdoo Airport, 26.4 nm (48.9 km) SSW. Retrieved 2020/02/18 09:00 UTC (9 minutes ago):

YPBO 180900Z AUTO 27006KT 9999 // NCD 40/14 Q1008

Closest aviation forecast (TAF) to Tom Price Airport

Closest forecast is Learmonth Airport, 211.9 nm (392.5 km) W. Retrieved 2020/02/18 06:33 UTC (3 hours ago):

TAF YPLM 180518Z 1806/1906 06012KT CAVOK FM180800 26014KT CAVOK FM181200 23012KT CAVOK FM190100 17012KT CAVOK FM190400 06012KT CAVOK